createdAt,value
2019-01-20T00:01:04.302Z,7.47
2019-01-20T00:05:10.698Z,7.70
2019-01-20T00:09:15.647Z,7.67
2019-01-20T00:13:21.001Z,8.40
2019-01-20T00:17:26.048Z,7.70
2019-01-20T00:21:31.218Z,8.20
2019-01-20T00:25:36.618Z,8.03
2019-01-20T00:29:41.643Z,6.93
2019-01-20T00:33:46.944Z,7.47
2019-01-20T00:37:52.078Z,7.43
2019-01-20T00:41:57.469Z,8.70
2019-01-20T00:46:02.590Z,8.40
2019-01-20T00:50:08.779Z,7.95
2019-01-20T00:54:14.092Z,7.97
2019-01-20T00:58:19.228Z,8.00
2019-01-20T01:02:24.560Z,7.40
2019-01-20T01:06:29.648Z,7.80
2019-01-20T01:10:34.779Z,7.20
2019-01-20T01:14:39.870Z,6.50
2019-01-20T01:18:44.900Z,7.20
2019-01-20T01:22:49.967Z,7.23
2019-01-20T01:26:55.080Z,6.33
2019-01-20T01:31:00.154Z,6.53
2019-01-20T01:35:05.826Z,7.03
2019-01-20T01:39:10.892Z,6.03
2019-01-20T01:43:15.905Z,6.70
2019-01-20T01:47:20.943Z,7.27
2019-01-20T01:51:26.093Z,6.27
2019-01-20T01:55:31.156Z,6.00
2019-01-20T01:59:36.242Z,5.97
2019-01-20T02:03:41.364Z,5.70
2019-01-20T02:07:46.583Z,5.70
2019-01-20T02:11:51.735Z,5.80
2019-01-20T02:15:56.788Z,6.00
2019-01-20T02:20:01.882Z,5.90
2019-01-20T02:24:07.023Z,5.77
2019-01-20T02:28:12.165Z,5.83
2019-01-20T02:32:17.158Z,5.33
2019-01-20T02:36:22.254Z,5.27
2019-01-20T02:40:27.646Z,5.80
2019-01-20T02:44:32.670Z,5.73
2019-01-20T02:48:37.703Z,5.50
2019-01-20T02:52:42.802Z,5.30
2019-01-20T02:56:47.847Z,5.70
2019-01-20T03:00:52.858Z,5.00
2019-01-20T03:04:58.032Z,5.37
2019-01-20T03:09:04.730Z,5.47
2019-01-20T03:13:09.956Z,5.73
2019-01-20T03:17:15.007Z,5.30
2019-01-20T03:21:19.973Z,5.53
2019-01-20T03:25:26.126Z,5.10
2019-01-20T03:29:31.206Z,5.20
2019-01-20T03:33:36.511Z,5.30
2019-01-20T03:37:41.574Z,5.10
2019-01-20T03:41:46.681Z,5.57
2019-01-20T03:45:51.748Z,5.10
2019-01-20T03:49:56.853Z,4.90
2019-01-20T03:54:01.972Z,5.20
2019-01-20T03:58:07.038Z,5.22
2019-01-20T04:02:12.048Z,5.10
2019-01-20T04:06:17.032Z,5.33
2019-01-20T04:10:22.068Z,5.30
2019-01-20T04:14:27.222Z,4.70
2019-01-20T04:18:32.190Z,5.23
2019-01-20T04:22:37.281Z,4.90
2019-01-20T04:26:42.275Z,5.00
2019-01-20T04:30:47.599Z,4.70
2019-01-20T04:34:52.682Z,4.23
2019-01-20T04:38:57.790Z,4.90
2019-01-20T04:43:02.840Z,5.00
2019-01-20T04:47:07.862Z,4.53
2019-01-20T04:51:13.042Z,4.05
2019-01-20T04:55:19.057Z,4.77
2019-01-20T04:59:24.054Z,4.13
2019-01-20T05:03:29.016Z,4.67
2019-01-20T05:07:34.106Z,4.13
2019-01-20T05:11:39.209Z,4.77
2019-01-20T05:15:44.297Z,4.70
2019-01-20T05:19:49.264Z,4.40
2019-01-20T05:23:54.564Z,4.27
2019-01-20T05:27:59.607Z,4.13
2019-01-20T05:32:04.709Z,4.57
2019-01-20T05:36:09.789Z,4.20
2019-01-20T05:40:17.245Z,4.57
2019-01-20T05:44:22.654Z,4.77
2019-01-20T05:48:27.789Z,4.40
2019-01-20T05:52:32.820Z,4.70
2019-01-20T05:56:37.869Z,4.67
2019-01-20T06:00:42.904Z,4.03
2019-01-20T06:04:47.995Z,4.30
2019-01-20T06:08:53.128Z,4.47
2019-01-20T06:12:58.176Z,4.63
2019-01-20T06:17:03.281Z,4.67
2019-01-20T06:21:08.410Z,4.87
2019-01-20T06:25:13.635Z,4.63
2019-01-20T06:29:19.080Z,4.20
2019-01-20T06:33:24.117Z,4.40
2019-01-20T06:37:29.185Z,4.13
2019-01-20T06:41:34.228Z,4.43
2019-01-20T06:45:39.324Z,4.53
2019-01-20T06:49:44.251Z,4.47
2019-01-20T06:53:49.253Z,4.60
2019-01-20T06:57:54.335Z,4.47
2019-01-20T07:01:59.868Z,4.53
2019-01-20T07:06:05.287Z,4.90
2019-01-20T07:10:10.911Z,4.20
2019-01-20T07:14:15.936Z,4.40
2019-01-20T07:18:21.070Z,4.63
2019-01-20T07:22:26.147Z,4.55
2019-01-20T07:26:31.279Z,4.87
2019-01-20T07:30:37.558Z,4.77
2019-01-20T07:34:42.611Z,5.00
2019-01-20T07:38:47.713Z,4.80
2019-01-20T07:42:52.787Z,4.53
2019-01-20T07:46:57.807Z,4.30
2019-01-20T07:51:03.076Z,5.27
2019-01-20T07:55:08.815Z,4.83
2019-01-20T07:59:14.719Z,4.80
2019-01-20T08:03:20.080Z,4.30
2019-01-20T08:07:27.222Z,4.20
2019-01-20T08:11:32.217Z,5.25
2019-01-20T08:15:37.369Z,5.13
2019-01-20T08:19:42.472Z,5.40
2019-01-20T08:23:47.411Z,4.87
2019-01-20T08:27:52.564Z,5.20
2019-01-20T08:31:57.662Z,5.60
2019-01-20T08:36:02.772Z,5.10
2019-01-20T08:40:11.097Z,4.80
2019-01-20T08:44:15.998Z,5.20
2019-01-20T08:48:22.067Z,5.27
2019-01-20T08:52:27.035Z,6.03
2019-01-20T08:56:32.136Z,5.60
2019-01-20T09:00:37.262Z,5.60
2019-01-20T09:04:42.273Z,5.20
2019-01-20T09:08:47.239Z,5.57
2019-01-20T09:12:52.425Z,5.78
2019-01-20T09:16:57.545Z,6.13
2019-01-20T09:21:02.611Z,5.33
2019-01-20T09:25:08.605Z,5.90
2019-01-20T09:29:13.616Z,6.17
2019-01-20T09:33:24.525Z,6.20
2019-01-20T09:37:25.525Z,6.67
2019-01-20T09:41:30.853Z,6.23
2019-01-20T09:45:36.594Z,6.10
2019-01-20T09:49:41.729Z,5.90
2019-01-20T09:53:47.304Z,5.93
2019-01-20T09:57:52.441Z,6.77
2019-01-20T10:01:57.599Z,15.33
2019-01-20T10:06:02.657Z,6.40
2019-01-20T10:10:09.622Z,6.77
2019-01-20T10:14:14.541Z,7.40
2019-01-20T10:18:19.849Z,7.03
2019-01-20T10:22:24.889Z,6.90
2019-01-20T10:26:29.946Z,6.90
2019-01-20T10:30:36.339Z,7.00
2019-01-20T10:34:41.563Z,8.27
2019-01-20T10:38:46.547Z,7.33
2019-01-20T10:42:51.609Z,7.23
2019-01-20T10:46:56.644Z,7.77
2019-01-20T10:51:01.771Z,8.17
2019-01-20T10:55:07.207Z,7.37
2019-01-20T10:59:12.184Z,8.47
2019-01-20T11:03:17.274Z,8.33
2019-01-20T11:07:22.176Z,7.90
2019-01-20T11:11:27.208Z,8.23
2019-01-20T11:15:32.208Z,8.17
2019-01-20T11:19:37.248Z,8.00
2019-01-20T11:23:42.321Z,8.93
2019-01-20T11:27:47.363Z,9.17
2019-01-20T11:31:52.395Z,9.17
2019-01-20T11:35:57.395Z,8.90
2019-01-20T11:40:02.447Z,8.20
2019-01-20T11:44:07.491Z,8.33
2019-01-20T11:48:12.540Z,8.60
2019-01-20T11:52:17.587Z,8.73
2019-01-20T11:56:22.500Z,8.70
2019-01-20T12:00:30.045Z,9.57
2019-01-20T12:04:35.147Z,8.83
2019-01-20T12:08:40.210Z,8.83
2019-01-20T12:12:47.837Z,9.97
2019-01-20T12:16:53.025Z,9.93
2019-01-20T12:20:59.603Z,9.20
2019-01-20T12:25:05.367Z,9.43
2019-01-20T12:29:10.481Z,8.80
2019-01-20T12:33:15.616Z,9.73
2019-01-20T12:37:21.081Z,10.63
2019-01-20T12:41:26.110Z,11.50
2019-01-20T12:45:31.178Z,11.87
2019-01-20T12:49:36.190Z,11.60
2019-01-20T12:53:41.284Z,10.93
2019-01-20T12:57:46.467Z,10.30
2019-01-20T13:01:51.474Z,11.73
2019-01-20T13:05:56.601Z,12.03
2019-01-20T13:10:01.719Z,12.60
2019-01-20T13:14:07.778Z,12.30
2019-01-20T13:18:12.889Z,12.00
2019-01-20T13:22:17.921Z,11.97
2019-01-20T13:26:22.943Z,11.73
2019-01-20T13:30:29.265Z,12.13
2019-01-20T13:34:34.377Z,12.23
2019-01-20T13:38:39.510Z,12.20
2019-01-20T13:42:44.903Z,11.23
2019-01-20T13:46:49.951Z,12.00
2019-01-20T13:50:55.220Z,12.00
2019-01-20T13:55:00.292Z,13.10
2019-01-20T13:59:05.460Z,11.83
2019-01-20T14:03:10.689Z,11.40
2019-01-20T14:07:15.706Z,10.83
2019-01-20T14:11:20.723Z,11.20
2019-01-20T14:15:25.779Z,10.93
2019-01-20T14:19:30.804Z,10.43
2019-01-20T14:23:35.904Z,10.30
2019-01-20T14:27:40.937Z,11.13
2019-01-20T14:31:46.069Z,10.30
2019-01-20T14:35:51.132Z,10.43
2019-01-20T14:39:56.219Z,10.00
2019-01-20T14:44:01.520Z,9.90
2019-01-20T14:48:06.598Z,10.10
2019-01-20T14:52:12.606Z,10.10
2019-01-20T14:56:19.131Z,9.53
2019-01-20T15:00:30.386Z,9.80
2019-01-20T15:04:42.952Z,9.50
2019-01-20T15:08:48.305Z,9.83
2019-01-20T15:12:53.971Z,10.43
2019-01-20T15:17:01.057Z,9.37
2019-01-20T15:21:16.073Z,9.83
2019-01-20T15:25:23.976Z,9.80
2019-01-20T15:29:40.266Z,10.70
2019-01-20T15:33:48.851Z,10.60
2019-01-20T15:38:23.800Z,9.90
2019-01-20T15:42:29.520Z,10.33
2019-01-20T15:51:30.676Z,9.37
2019-01-20T15:55:38.663Z,10.37
2019-01-20T16:00:13.156Z,11.50
2019-01-20T16:04:52.785Z,10.43
2019-01-20T16:09:04.186Z,9.63
2019-01-20T16:17:59.402Z,10.27
2019-01-20T16:27:30.925Z,10.43
2019-01-20T16:31:39.765Z,9.97
2019-01-20T16:35:42.908Z,10.43
2019-01-20T16:39:48.026Z,10.60
2019-01-20T16:43:53.102Z,10.70
2019-01-20T16:47:58.227Z,11.00
2019-01-20T16:52:05.695Z,23.07
2019-01-20T16:56:17.432Z,11.23
2019-01-20T17:00:30.102Z,12.47
2019-01-20T17:04:35.728Z,12.17
2019-01-20T17:08:40.848Z,11.60
2019-01-20T17:12:46.248Z,11.43
2019-01-20T17:16:51.412Z,11.30
2019-01-20T17:20:56.601Z,11.97
2019-01-20T17:25:01.624Z,11.10
2019-01-20T17:29:06.758Z,10.97
2019-01-20T17:33:13.042Z,11.03
2019-01-20T17:37:18.115Z,10.50
2019-01-20T17:41:23.504Z,56.27
2019-01-20T17:45:30.745Z,12.10
2019-01-20T17:49:35.908Z,11.00
2019-01-20T17:53:40.880Z,11.70
2019-01-20T17:57:46.136Z,11.67
2019-01-20T18:01:51.262Z,11.07
2019-01-20T18:05:56.597Z,11.87
2019-01-20T18:10:01.800Z,11.83
2019-01-20T18:14:07.908Z,11.13
2019-01-20T18:18:13.128Z,10.90
2019-01-20T18:22:18.107Z,10.70
2019-01-20T18:26:23.149Z,11.43
2019-01-20T18:30:29.361Z,11.67
2019-01-20T18:34:34.390Z,11.83
2019-01-20T18:38:39.891Z,11.73
2019-01-20T18:42:44.988Z,12.90
2019-01-20T18:46:50.107Z,12.63
2019-01-20T18:50:55.140Z,11.90
2019-01-20T18:55:00.569Z,13.53
2019-01-20T18:59:05.703Z,13.37
2019-01-20T19:03:10.960Z,12.83
2019-01-20T19:07:16.088Z,11.93
2019-01-20T19:11:21.312Z,12.23
2019-01-20T19:15:26.445Z,13.23
2019-01-20T19:19:31.507Z,12.40
2019-01-20T19:23:36.667Z,12.00
2019-01-20T19:27:41.692Z,11.30
2019-01-20T19:31:46.996Z,11.33
2019-01-20T19:35:52.051Z,10.53
2019-01-20T19:39:57.147Z,11.20
2019-01-20T19:44:02.150Z,11.77
2019-01-20T19:48:12.993Z,13.57
2019-01-20T19:52:14.043Z,13.97
2019-01-20T19:56:19.152Z,15.27
2019-01-20T20:00:24.979Z,14.17
2019-01-20T20:04:30.040Z,15.23
2019-01-20T20:08:35.422Z,16.23
2019-01-20T20:12:41.337Z,18.63
2019-01-20T20:16:47.490Z,17.13
2019-01-20T20:20:52.587Z,17.97
2019-01-20T20:24:57.606Z,16.40
2019-01-20T20:29:02.918Z,18.53
2019-01-20T20:33:08.195Z,17.87
2019-01-20T20:37:13.344Z,17.90
2019-01-20T20:41:18.420Z,19.20
2019-01-20T20:45:24.119Z,21.33
2019-01-20T20:49:29.461Z,19.73
2019-01-20T20:53:34.587Z,20.20
2019-01-20T20:57:39.681Z,21.23
2019-01-20T21:01:44.819Z,19.27
2019-01-20T21:05:50.010Z,18.90
2019-01-20T21:09:56.476Z,19.90
2019-01-20T21:14:01.675Z,21.60
2019-01-20T21:18:06.892Z,19.37
2019-01-20T21:22:12.042Z,20.17
2019-01-20T21:26:17.085Z,19.30
2019-01-20T21:30:24.029Z,19.27
2019-01-20T21:34:29.200Z,21.53
2019-01-20T21:38:34.367Z,25.60
2019-01-20T21:42:39.511Z,27.57
2019-01-20T21:46:45.373Z,25.00
2019-01-20T21:50:50.859Z,24.57
2019-01-20T21:54:56.008Z,25.33
2019-01-20T21:59:02.429Z,23.37
2019-01-20T22:03:07.490Z,25.53
2019-01-20T22:07:12.607Z,26.37
2019-01-20T22:11:17.787Z,25.23
2019-01-20T22:15:22.948Z,24.53
2019-01-20T22:19:28.217Z,23.63
2019-01-20T22:23:33.270Z,24.60
2019-01-20T22:27:38.378Z,24.60
2019-01-20T22:31:43.543Z,25.70
2019-01-20T22:35:48.695Z,25.03
2019-01-20T22:39:53.842Z,25.13
2019-01-20T22:43:59.034Z,25.20
2019-01-20T22:48:04.098Z,26.12
2019-01-20T22:52:10.213Z,23.97
2019-01-20T22:56:15.346Z,26.03
2019-01-20T23:01:19.330Z,24.47
2019-01-20T23:05:24.409Z,25.10
2019-01-20T23:09:29.583Z,26.20
2019-01-20T23:13:34.705Z,25.67
2019-01-20T23:17:39.780Z,25.77
2019-01-20T23:21:44.950Z,23.23
2019-01-20T23:25:49.980Z,24.83
2019-01-20T23:29:55.500Z,24.23
2019-01-20T23:34:00.559Z,24.80
2019-01-20T23:38:05.707Z,22.77
2019-01-20T23:42:10.894Z,26.13
2019-01-20T23:46:15.917Z,22.73
2019-01-20T23:50:21.055Z,25.27
2019-01-20T23:54:26.186Z,26.30
2019-01-20T23:58:31.315Z,26.13
